sensor_id;sensor_type;location;lat;lon;timestamp;temperature;humidity
7445;DHT22;3764;48.126;11.594;2023-08-01T00:00:45;19.60;99.90
7445;DHT22;3764;48.126;11.594;2023-08-01T00:03:12;19.60;99.90
7445;DHT22;3764;48.126;11.594;2023-08-01T00:05:40;19.60;99.90
7445;DHT22;3764;48.126;11.594;2023-08-01T00:08:11;19.60;99.90
7445;DHT22;3764;48.126;11.594;2023-08-01T00:10:39;19.60;99.90
7445;DHT22;3764;48.126;11.594;2023-08-01T00:13:07;19.60;99.90
7445;DHT22;3764;48.126;11.594;2023-08-01T00:15:34;19.60;99.90
7445;DHT22;3764;48.126;11.594;2023-08-01T00:18:01;19.50;99.90
7445;DHT22;3764;48.126;11.594;2023-08-01T00:20:28;19.60;99.90
7445;DHT22;3764;48.126;11.594;2023-08-01T00:22:55;19.60;99.90
7445;DHT22;3764;48.126;11.594;2023-08-01T00:25:24;19.60;99.90
7445;DHT22;3764;48.126;11.594;2023-08-01T00:27:51;19.50;99.90
7445;DHT22;3764;48.126;11.594;2023-08-01T00:30:18;19.50;99.90
7445;DHT22;3764;48.126;11.594;2023-08-01T00:32:45;19.50;99.90
7445;DHT22;3764;48.126;11.594;2023-08-01T00:35:12;19.50;99.90
7445;DHT22;3764;48.126;11.594;2023-08-01T00:37:39;19.50;99.90
7445;DHT22;3764;48.126;11.594;2023-08-01T00:40:08;19.50;99.90
7445;DHT22;3764;48.126;11.594;2023-08-01T00:42:37;19.50;99.90
7445;DHT22;3764;48.126;11.594;2023-08-01T00:45:05;19.50;99.90
7445;DHT22;3764;48.126;11.594;2023-08-01T00:47:33;19.50;99.90
7445;DHT22;3764;48.126;11.594;2023-08-01T00:50:01;19.50;99.90
7445;DHT22;3764;48.126;11.594;2023-08-01T00:52:28;19.40;99.90
7445;DHT22;3764;48.126;11.594;2023-08-01T00:54:56;19.40;99.90
7445;DHT22;3764;48.126;11.594;2023-08-01T00:57:23;19.40;99.90
7445;DHT22;3764;48.126;11.594;2023-08-01T00:59:51;19.40;99.90
7445;DHT22;3764;48.126;11.594;2023-08-01T01:02:19;19.40;99.90
7445;DHT22;3764;48.126;11.594;2023-08-01T01:04:46;19.40;99.90
7445;DHT22;3764;48.126;11.594;2023-08-01T01:07:14;19.40;99.90
7445;DHT22;3764;48.126;11.594;2023-08-01T01:09:42;19.40;99.90
7445;DHT22;3764;48.126;11.594;2023-08-01T01:12:09;19.30;99.90
7445;DHT22;3764;48.126;11.594;2023-08-01T01:14:36;19.30;99.90
7445;DHT22;3764;48.126;11.594;2023-08-01T01:17:05;19.40;99.90
7445;DHT22;3764;48.126;11.594;2023-08-01T01:19:32;19.30;99.90
7445;DHT22;3764;48.126;11.594;2023-08-01T01:22:03;19.30;99.90
7445;DHT22;3764;48.126;11.594;2023-08-01T01:24:32;19.30;99.90
7445;DHT22;3764;48.126;11.594;2023-08-01T01:27:01;19.30;99.90
7445;DHT22;3764;48.126;11.594;2023-08-01T01:29:30;19.30;99.90
7445;DHT22;3764;48.126;11.594;2023-08-01T01:31:58;19.30;99.90
7445;DHT22;3764;48.126;11.594;2023-08-01T01:34:26;19.30;99.90
7445;DHT22;3764;48.126;11.594;2023-08-01T01:36:54;19.30;99.90
7445;DHT22;3764;48.126;11.594;2023-08-01T01:39:22;19.30;99.90
7445;DHT22;3764;48.126;11.594;2023-08-01T01:41:49;19.30;99.90
7445;DHT22;3764;48.126;11.594;2023-08-01T01:44:16;19.30;99.90
7445;DHT22;3764;48.126;11.594;2023-08-01T01:46:43;19.30;99.90
7445;DHT22;3764;48.126;11.594;2023-08-01T01:49:10;19.30;99.90
7445;DHT22;3764;48.126;11.594;2023-08-01T01:51:37;19.30;99.90
7445;DHT22;3764;48.126;11.594;2023-08-01T01:54:04;19.30;99.90
7445;DHT22;3764;48.126;11.594;2023-08-01T01:56:33;19.30;99.90
7445;DHT22;3764;48.126;11.594;2023-08-01T01:59:01;19.30;99.90
7445;DHT22;3764;48.126;11.594;2023-08-01T02:01:28;19.30;99.90
7445;DHT22;3764;48.126;11.594;2023-08-01T02:03:55;19.30;99.90
7445;DHT22;3764;48.126;11.594;2023-08-01T02:06:22;19.30;99.90
7445;DHT22;3764;48.126;11.594;2023-08-01T02:08:49;19.30;99.90
7445;DHT22;3764;48.126;11.594;2023-08-01T02:11:16;19.30;99.90
7445;DHT22;3764;48.126;11.594;2023-08-01T02:13:45;19.30;99.90
7445;DHT22;3764;48.126;11.594;2023-08-01T02:16:12;19.30;99.90
7445;DHT22;3764;48.126;11.594;2023-08-01T02:18:39;19.30;99.90
7445;DHT22;3764;48.126;11.594;2023-08-01T02:21:06;19.20;99.90
7445;DHT22;3764;48.126;11.594;2023-08-01T02:23:33;19.20;99.90
7445;DHT22;3764;48.126;11.594;2023-08-01T02:26:03;19.20;99.90
7445;DHT22;3764;48.126;11.594;2023-08-01T02:28:30;19.20;99.90
7445;DHT22;3764;48.126;11.594;2023-08-01T02:30:58;19.20;99.90
7445;DHT22;3764;48.126;11.594;2023-08-01T02:33:25;19.10;99.90
7445;DHT22;3764;48.126;11.594;2023-08-01T02:35:52;19.10;99.90
7445;DHT22;3764;48.126;11.594;2023-08-01T02:38:19;19.10;99.90
7445;DHT22;3764;48.126;11.594;2023-08-01T02:40:46;19.10;99.90
7445;DHT22;3764;48.126;11.594;2023-08-01T02:43:13;19.10;99.90
7445;DHT22;3764;48.126;11.594;2023-08-01T02:45:42;19.10;99.90
7445;DHT22;3764;48.126;11.594;2023-08-01T02:48:11;19.10;99.90
7445;DHT22;3764;48.126;11.594;2023-08-01T02:50:38;19.10;99.90
7445;DHT22;3764;48.126;11.594;2023-08-01T02:53:06;19.10;99.90
7445;DHT22;3764;48.126;11.594;2023-08-01T02:55:33;19.10;99.90
7445;DHT22;3764;48.126;11.594;2023-08-01T02:58:00;19.10;99.90
7445;DHT22;3764;48.126;11.594;2023-08-01T03:00:27;19.10;99.90
7445;DHT22;3764;48.126;11.594;2023-08-01T03:02:54;19.10;99.90
7445;DHT22;3764;48.126;11.594;2023-08-01T03:05:24;19.10;99.90
7445;DHT22;3764;48.126;11.594;2023-08-01T03:07:51;19.10;99.90
7445;DHT22;3764;48.126;11.594;2023-08-01T03:10:18;19.10;99.90
7445;DHT22;3764;48.126;11.594;2023-08-01T03:12:45;19.10;99.90
7445;DHT22;3764;48.126;11.594;2023-08-01T03:15:12;19.10;99.90
7445;DHT22;3764;48.126;11.594;2023-08-01T03:17:39;19.10;99.90
7445;DHT22;3764;48.126;11.594;2023-08-01T03:20:07;19.10;99.90
7445;DHT22;3764;48.126;11.594;2023-08-01T03:22:38;19.10;99.90
7445;DHT22;3764;48.126;11.594;2023-08-01T03:25:06;19.10;99.90
7445;DHT22;3764;48.126;11.594;2023-08-01T03:27:34;19.10;99.90
7445;DHT22;3764;48.126;11.594;2023-08-01T03:30:01;19.10;99.90
7445;DHT22;3764;48.126;11.594;2023-08-01T03:32:30;19.10;99.90
7445;DHT22;3764;48.126;11.594;2023-08-01T03:34:57;19.20;99.90
7445;DHT22;3764;48.126;11.594;2023-08-01T03:37:24;19.20;99.90
7445;DHT22;3764;48.126;11.594;2023-08-01T03:39:52;19.20;99.90
7445;DHT22;3764;48.126;11.594;2023-08-01T03:42:19;19.20;99.90
7445;DHT22;3764;48.126;11.594;2023-08-01T03:44:46;19.20;99.90
7445;DHT22;3764;48.126;11.594;2023-08-01T03:47:13;19.20;99.90
7445;DHT22;3764;48.126;11.594;2023-08-01T03:49:41;19.30;99.90
7445;DHT22;3764;48.126;11.594;2023-08-01T03:52:08;19.30;99.90
7445;DHT22;3764;48.126;11.594;2023-08-01T03:54:35;19.30;99.90
7445;DHT22;3764;48.126;11.594;2023-08-01T03:57:05;19.30;99.90
7445;DHT22;3764;48.126;11.594;2023-08-01T03:59:32;19.30;99.90
7445;DHT22;3764;48.126;11.594;2023-08-01T04:01:59;19.30;99.90
7445;DHT22;3764;48.126;11.594;2023-08-01T04:04:26;19.30;99.90
7445;DHT22;3764;48.126;11.594;2023-08-01T04:06:54;19.30;99.90
7445;DHT22;3764;48.126;11.594;2023-08-01T04:09:21;19.30;99.90
7445;DHT22;3764;48.126;11.594;2023-08-01T04:11:48;19.30;99.90
7445;DHT22;3764;48.126;11.594;2023-08-01T04:14:16;19.30;99.90
7445;DHT22;3764;48.126;11.594;2023-08-01T04:16:43;19.30;99.90
7445;DHT22;3764;48.126;11.594;2023-08-01T04:19:11;19.30;99.90
7445;DHT22;3764;48.126;11.594;2023-08-01T04:21:38;19.30;99.90
7445;DHT22;3764;48.126;11.594;2023-08-01T04:24:05;19.30;99.90
7445;DHT22;3764;48.126;11.594;2023-08-01T04:26:32;19.30;99.90
7445;DHT22;3764;48.126;11.594;2023-08-01T04:29:00;19.20;99.90
7445;DHT22;3764;48.126;11.594;2023-08-01T04:31:28;19.20;99.90
7445;DHT22;3764;48.126;11.594;2023-08-01T04:33:55;19.20;99.90
7445;DHT22;3764;48.126;11.594;2023-08-01T04:36:22;19.20;99.90
7445;DHT22;3764;48.126;11.594;2023-08-01T04:38:49;19.20;99.90
7445;DHT22;3764;48.126;11.594;2023-08-01T04:41:16;19.20;99.90
7445;DHT22;3764;48.126;11.594;2023-08-01T04:43:44;19.20;99.90
7445;DHT22;3764;48.126;11.594;2023-08-01T04:46:11;19.10;99.90
7445;DHT22;3764;48.126;11.594;2023-08-01T04:48:39;19.10;99.90
7445;DHT22;3764;48.126;11.594;2023-08-01T04:51:06;19.10;99.90
7445;DHT22;3764;48.126;11.594;2023-08-01T04:53:33;19.10;99.90
7445;DHT22;3764;48.126;11.594;2023-08-01T04:56:00;19.00;99.90
7445;DHT22;3764;48.126;11.594;2023-08-01T04:58:27;19.00;99.90
7445;DHT22;3764;48.126;11.594;2023-08-01T05:00:56;18.90;99.90
7445;DHT22;3764;48.126;11.594;2023-08-01T05:03:23;18.80;99.90
7445;DHT22;3764;48.126;11.594;2023-08-01T05:05:51;18.80;99.90
7445;DHT22;3764;48.126;11.594;2023-08-01T05:08:18;18.80;99.90
7445;DHT22;3764;48.126;11.594;2023-08-01T05:10:45;18.70;99.90
7445;DHT22;3764;48.126;11.594;2023-08-01T05:13:13;18.60;99.90
7445;DHT22;3764;48.126;11.594;2023-08-01T05:15:40;18.50;99.90
7445;DHT22;3764;48.126;11.594;2023-08-01T05:18:07;18.50;99.90
7445;DHT22;3764;48.126;11.594;2023-08-01T05:20:34;18.40;99.90
7445;DHT22;3764;48.126;11.594;2023-08-01T05:23:02;18.30;99.90
7445;DHT22;3764;48.126;11.594;2023-08-01T05:25:29;18.20;99.90
7445;DHT22;3764;48.126;11.594;2023-08-01T05:27:56;18.20;99.90
7445;DHT22;3764;48.126;11.594;2023-08-01T05:30:24;18.10;99.90
7445;DHT22;3764;48.126;11.594;2023-08-01T05:32:51;18.00;99.90
7445;DHT22;3764;48.126;11.594;2023-08-01T05:35:20;18.00;99.90
7445;DHT22;3764;48.126;11.594;2023-08-01T05:37:47;18.00;99.90
7445;DHT22;3764;48.126;11.594;2023-08-01T05:40:16;17.90;99.90
7445;DHT22;3764;48.126;11.594;2023-08-01T05:42:43;18.00;99.90
7445;DHT22;3764;48.126;11.594;2023-08-01T05:45:10;17.90;99.90
7445;DHT22;3764;48.126;11.594;2023-08-01T05:47:38;17.90;99.90
7445;DHT22;3764;48.126;11.594;2023-08-01T05:50:06;17.90;99.90
7445;DHT22;3764;48.126;11.594;2023-08-01T05:52:34;17.90;99.90
7445;DHT22;3764;48.126;11.594;2023-08-01T05:55:01;17.90;99.90
7445;DHT22;3764;48.126;11.594;2023-08-01T05:57:29;17.90;99.90
7445;DHT22;3764;48.126;11.594;2023-08-01T05:59:57;17.80;99.90
7445;DHT22;3764;48.126;11.594;2023-08-01T06:02:24;17.80;99.90
7445;DHT22;3764;48.126;11.594;2023-08-01T06:04:51;17.80;99.90
7445;DHT22;3764;48.126;11.594;2023-08-01T06:07:18;17.80;99.90
7445;DHT22;3764;48.126;11.594;2023-08-01T06:09:48;17.90;99.90
7445;DHT22;3764;48.126;11.594;2023-08-01T06:12:16;17.90;99.90
7445;DHT22;3764;48.126;11.594;2023-08-01T06:14:45;17.90;99.90
7445;DHT22;3764;48.126;11.594;2023-08-01T06:17:12;17.90;99.90
7445;DHT22;3764;48.126;11.594;2023-08-01T06:19:40;17.90;99.90
7445;DHT22;3764;48.126;11.594;2023-08-01T06:22:07;18.00;99.90
7445;DHT22;3764;48.126;11.594;2023-08-01T06:24:34;18.00;99.90
7445;DHT22;3764;48.126;11.594;2023-08-01T06:27:01;18.00;99.90
7445;DHT22;3764;48.126;11.594;2023-08-01T06:29:28;18.00;99.90
7445;DHT22;3764;48.126;11.594;2023-08-01T06:31:56;18.00;99.90
7445;DHT22;3764;48.126;11.594;2023-08-01T06:34:24;18.00;99.90
7445;DHT22;3764;48.126;11.594;2023-08-01T06:36:51;18.10;99.90
7445;DHT22;3764;48.126;11.594;2023-08-01T06:39:19;18.10;99.90
7445;DHT22;3764;48.126;11.594;2023-08-01T06:41:48;18.10;99.90
7445;DHT22;3764;48.126;11.594;2023-08-01T06:44:15;18.20;99.90
7445;DHT22;3764;48.126;11.594;2023-08-01T06:46:42;18.20;99.90
7445;DHT22;3764;48.126;11.594;2023-08-01T06:49:11;18.20;99.90
7445;DHT22;3764;48.126;11.594;2023-08-01T06:51:38;18.20;99.90
7445;DHT22;3764;48.126;11.594;2023-08-01T06:54:07;18.20;99.90
7445;DHT22;3764;48.126;11.594;2023-08-01T06:56:34;18.20;99.90
7445;DHT22;3764;48.126;11.594;2023-08-01T06:59:01;18.30;99.90
7445;DHT22;3764;48.126;11.594;2023-08-01T07:01:29;18.30;99.90
7445;DHT22;3764;48.126;11.594;2023-08-01T07:03:56;18.40;99.90
7445;DHT22;3764;48.126;11.594;2023-08-01T07:06:24;18.30;99.90
7445;DHT22;3764;48.126;11.594;2023-08-01T07:08:51;18.40;99.90
7445;DHT22;3764;48.126;11.594;2023-08-01T07:11:18;18.40;99.90
7445;DHT22;3764;48.126;11.594;2023-08-01T07:13:46;18.50;99.90
7445;DHT22;3764;48.126;11.594;2023-08-01T07:16:13;18.50;99.90
7445;DHT22;3764;48.126;11.594;2023-08-01T07:18:40;18.50;99.90
7445;DHT22;3764;48.126;11.594;2023-08-01T07:21:09;18.50;99.90
7445;DHT22;3764;48.126;11.594;2023-08-01T07:23:38;18.60;99.90
7445;DHT22;3764;48.126;11.594;2023-08-01T07:26:05;18.60;99.90
7445;DHT22;3764;48.126;11.594;2023-08-01T07:28:32;18.60;99.90
7445;DHT22;3764;48.126;11.594;2023-08-01T07:30:59;18.60;99.90
7445;DHT22;3764;48.126;11.594;2023-08-01T07:33:27;18.60;99.90
7445;DHT22;3764;48.126;11.594;2023-08-01T07:35:54;18.60;99.90
7445;DHT22;3764;48.126;11.594;2023-08-01T07:38:21;18.70;99.90
7445;DHT22;3764;48.126;11.594;2023-08-01T07:40:50;18.70;99.90
7445;DHT22;3764;48.126;11.594;2023-08-01T07:43:17;18.60;99.90
7445;DHT22;3764;48.126;11.594;2023-08-01T07:45:44;18.70;99.90
7445;DHT22;3764;48.126;11.594;2023-08-01T07:48:12;18.70;99.90
7445;DHT22;3764;48.126;11.594;2023-08-01T07:50:39;18.80;99.90
7445;DHT22;3764;48.126;11.594;2023-08-01T07:53:06;18.80;99.90
7445;DHT22;3764;48.126;11.594;2023-08-01T07:55:34;18.80;99.90
7445;DHT22;3764;48.126;11.594;2023-08-01T07:58:02;18.80;99.90
7445;DHT22;3764;48.126;11.594;2023-08-01T08:00:29;18.80;99.90
7445;DHT22;3764;48.126;11.594;2023-08-01T08:02:56;18.90;99.90
7445;DHT22;3764;48.126;11.594;2023-08-01T08:05:24;18.90;99.90
7445;DHT22;3764;48.126;11.594;2023-08-01T08:07:51;18.80;99.90
7445;DHT22;3764;48.126;11.594;2023-08-01T08:10:18;18.80;99.90
7445;DHT22;3764;48.126;11.594;2023-08-01T08:12:45;18.70;99.90
7445;DHT22;3764;48.126;11.594;2023-08-01T08:15:13;18.70;99.90
7445;DHT22;3764;48.126;11.594;2023-08-01T08:17:41;18.70;99.90
7445;DHT22;3764;48.126;11.594;2023-08-01T08:20:09;18.70;99.90
7445;DHT22;3764;48.126;11.594;2023-08-01T08:22:36;18.70;99.90
7445;DHT22;3764;48.126;11.594;2023-08-01T08:25:03;18.80;99.90
7445;DHT22;3764;48.126;11.594;2023-08-01T08:27:30;18.80;99.90
7445;DHT22;3764;48.126;11.594;2023-08-01T08:29:57;18.90;99.90
7445;DHT22;3764;48.126;11.594;2023-08-01T08:32:26;18.90;99.90
7445;DHT22;3764;48.126;11.594;2023-08-01T08:34:53;19.00;99.90
7445;DHT22;3764;48.126;11.594;2023-08-01T08:37:20;19.00;99.90
7445;DHT22;3764;48.126;11.594;2023-08-01T08:39:47;19.00;99.90
7445;DHT22;3764;48.126;11.594;2023-08-01T08:42:17;19.10;99.90
7445;DHT22;3764;48.126;11.594;2023-08-01T08:44:48;19.10;99.90
7445;DHT22;3764;48.126;11.594;2023-08-01T08:47:17;19.20;99.90
7445;DHT22;3764;48.126;11.594;2023-08-01T08:49:46;19.20;99.90
7445;DHT22;3764;48.126;11.594;2023-08-01T08:52:14;19.20;99.90
7445;DHT22;3764;48.126;11.594;2023-08-01T08:54:41;19.20;99.90
7445;DHT22;3764;48.126;11.594;2023-08-01T08:57:09;19.20;99.90
7445;DHT22;3764;48.126;11.594;2023-08-01T08:59:36;19.30;99.90
7445;DHT22;3764;48.126;11.594;2023-08-01T09:02:04;19.30;99.90
7445;DHT22;3764;48.126;11.594;2023-08-01T09:04:31;19.40;99.90
7445;DHT22;3764;48.126;11.594;2023-08-01T09:07:02;19.40;99.90
7445;DHT22;3764;48.126;11.594;2023-08-01T09:09:30;19.50;99.90
7445;DHT22;3764;48.126;11.594;2023-08-01T09:11:58;19.50;99.90
7445;DHT22;3764;48.126;11.594;2023-08-01T09:14:26;19.60;99.90
7445;DHT22;3764;48.126;11.594;2023-08-01T09:16:53;19.60;99.90
7445;DHT22;3764;48.126;11.594;2023-08-01T09:19:21;19.70;99.90
7445;DHT22;3764;48.126;11.594;2023-08-01T09:21:49;19.70;99.90
7445;DHT22;3764;48.126;11.594;2023-08-01T09:24:20;19.70;99.90
7445;DHT22;3764;48.126;11.594;2023-08-01T09:26:48;19.70;99.90
7445;DHT22;3764;48.126;11.594;2023-08-01T09:29:16;19.70;99.90
7445;DHT22;3764;48.126;11.594;2023-08-01T09:31:44;19.70;99.90
7445;DHT22;3764;48.126;11.594;2023-08-01T09:34:19;19.70;99.90
7445;DHT22;3764;48.126;11.594;2023-08-01T09:36:46;19.80;99.90
7445;DHT22;3764;48.126;11.594;2023-08-01T09:39:18;19.70;99.90
7445;DHT22;3764;48.126;11.594;2023-08-01T09:41:54;19.80;99.90
7445;DHT22;3764;48.126;11.594;2023-08-01T09:44:21;19.80;99.90
7445;DHT22;3764;48.126;11.594;2023-08-01T09:46:55;19.80;99.90
7445;DHT22;3764;48.126;11.594;2023-08-01T09:49:23;19.80;99.90
7445;DHT22;3764;48.126;11.594;2023-08-01T09:51:50;19.80;99.90
7445;DHT22;3764;48.126;11.594;2023-08-01T09:54:20;19.80;99.90
7445;DHT22;3764;48.126;11.594;2023-08-01T09:56:49;19.80;99.90
7445;DHT22;3764;48.126;11.594;2023-08-01T09:59:19;19.80;99.90
7445;DHT22;3764;48.126;11.594;2023-08-01T10:01:48;19.80;99.90
7445;DHT22;3764;48.126;11.594;2023-08-01T10:04:19;19.80;99.90
7445;DHT22;3764;48.126;11.594;2023-08-01T10:06:50;19.90;99.90
7445;DHT22;3764;48.126;11.594;2023-08-01T10:09:22;19.80;99.90
7445;DHT22;3764;48.126;11.594;2023-08-01T10:11:49;19.70;99.90
7445;DHT22;3764;48.126;11.594;2023-08-01T10:14:17;19.70;99.90
7445;DHT22;3764;48.126;11.594;2023-08-01T10:16:44;19.60;99.90
7445;DHT22;3764;48.126;11.594;2023-08-01T10:19:13;19.60;99.90
7445;DHT22;3764;48.126;11.594;2023-08-01T10:21:41;19.60;99.90
7445;DHT22;3764;48.126;11.594;2023-08-01T10:24:09;19.60;99.90
7445;DHT22;3764;48.126;11.594;2023-08-01T10:26:39;19.50;99.90
7445;DHT22;3764;48.126;11.594;2023-08-01T10:29:06;19.50;99.90
7445;DHT22;3764;48.126;11.594;2023-08-01T10:31:34;19.50;99.90
7445;DHT22;3764;48.126;11.594;2023-08-01T10:34:05;19.50;99.90
7445;DHT22;3764;48.126;11.594;2023-08-01T10:36:32;19.50;99.90
7445;DHT22;3764;48.126;11.594;2023-08-01T10:39:01;19.50;99.90
7445;DHT22;3764;48.126;11.594;2023-08-01T10:41:30;19.50;99.90
7445;DHT22;3764;48.126;11.594;2023-08-01T10:44:10;19.50;99.90
7445;DHT22;3764;48.126;11.594;2023-08-01T10:46:48;19.50;99.90
7445;DHT22;3764;48.126;11.594;2023-08-01T10:49:16;19.40;99.90
7445;DHT22;3764;48.126;11.594;2023-08-01T10:51:44;19.40;99.90
7445;DHT22;3764;48.126;11.594;2023-08-01T10:54:19;19.30;99.90
7445;DHT22;3764;48.126;11.594;2023-08-01T10:56:49;19.30;99.90
7445;DHT22;3764;48.126;11.594;2023-08-01T10:59:18;19.30;99.90
7445;DHT22;3764;48.126;11.594;2023-08-01T11:01:47;19.30;99.90
7445;DHT22;3764;48.126;11.594;2023-08-01T11:04:15;19.20;99.90
7445;DHT22;3764;48.126;11.594;2023-08-01T11:06:44;19.20;99.90
7445;DHT22;3764;48.126;11.594;2023-08-01T11:09:16;19.20;99.90
7445;DHT22;3764;48.126;11.594;2023-08-01T11:11:44;19.10;99.90
7445;DHT22;3764;48.126;11.594;2023-08-01T11:14:11;19.00;99.90
7445;DHT22;3764;48.126;11.594;2023-08-01T11:16:43;19.00;99.90
7445;DHT22;3764;48.126;11.594;2023-08-01T11:19:20;19.00;99.90
7445;DHT22;3764;48.126;11.594;2023-08-01T11:21:48;18.90;99.90
7445;DHT22;3764;48.126;11.594;2023-08-01T11:24:16;18.80;99.90
7445;DHT22;3764;48.126;11.594;2023-08-01T11:26:44;18.90;99.90
7445;DHT22;3764;48.126;11.594;2023-08-01T11:29:12;18.90;99.90
7445;DHT22;3764;48.126;11.594;2023-08-01T11:31:41;18.80;99.90
7445;DHT22;3764;48.126;11.594;2023-08-01T11:34:08;18.80;99.90
7445;DHT22;3764;48.126;11.594;2023-08-01T11:36:37;18.80;99.90
7445;DHT22;3764;48.126;11.594;2023-08-01T11:39:04;18.70;99.90
7445;DHT22;3764;48.126;11.594;2023-08-01T11:41:32;18.70;99.90
7445;DHT22;3764;48.126;11.594;2023-08-01T11:44:03;18.80;99.90
7445;DHT22;3764;48.126;11.594;2023-08-01T11:46:32;18.80;99.90
7445;DHT22;3764;48.126;11.594;2023-08-01T11:49:02;18.80;99.90
7445;DHT22;3764;48.126;11.594;2023-08-01T11:51:29;18.80;99.90
7445;DHT22;3764;48.126;11.594;2023-08-01T11:54:00;18.80;99.90
7445;DHT22;3764;48.126;11.594;2023-08-01T11:56:28;18.80;99.90
7445;DHT22;3764;48.126;11.594;2023-08-01T11:58:55;18.70;99.90
7445;DHT22;3764;48.126;11.594;2023-08-01T12:01:22;18.70;99.90
7445;DHT22;3764;48.126;11.594;2023-08-01T12:03:51;18.70;99.90
7445;DHT22;3764;48.126;11.594;2023-08-01T12:06:21;18.70;99.90
7445;DHT22;3764;48.126;11.594;2023-08-01T12:08:51;18.70;99.90
7445;DHT22;3764;48.126;11.594;2023-08-01T12:11:22;18.70;99.90
7445;DHT22;3764;48.126;11.594;2023-08-01T12:14:01;18.70;99.90
7445;DHT22;3764;48.126;11.594;2023-08-01T12:16:28;18.70;99.90
7445;DHT22;3764;48.126;11.594;2023-08-01T12:18:56;18.70;99.90
7445;DHT22;3764;48.126;11.594;2023-08-01T12:21:24;18.80;99.90
7445;DHT22;3764;48.126;11.594;2023-08-01T12:23:51;18.80;99.90
7445;DHT22;3764;48.126;11.594;2023-08-01T12:26:18;18.90;99.90
7445;DHT22;3764;48.126;11.594;2023-08-01T12:28:45;18.90;99.90
7445;DHT22;3764;48.126;11.594;2023-08-01T12:31:16;19.10;99.90
7445;DHT22;3764;48.126;11.594;2023-08-01T12:33:44;19.10;99.90
7445;DHT22;3764;48.126;11.594;2023-08-01T12:36:11;19.20;99.90
7445;DHT22;3764;48.126;11.594;2023-08-01T12:38:40;19.20;99.90
7445;DHT22;3764;48.126;11.594;2023-08-01T12:41:07;19.20;99.90
7445;DHT22;3764;48.126;11.594;2023-08-01T12:43:34;19.20;99.90
7445;DHT22;3764;48.126;11.594;2023-08-01T12:46:02;19.30;99.90
7445;DHT22;3764;48.126;11.594;2023-08-01T12:48:29;19.30;99.90
7445;DHT22;3764;48.126;11.594;2023-08-01T12:50:56;19.30;99.90
7445;DHT22;3764;48.126;11.594;2023-08-01T12:53:23;19.30;99.90
7445;DHT22;3764;48.126;11.594;2023-08-01T12:55:52;19.30;99.90
7445;DHT22;3764;48.126;11.594;2023-08-01T12:58:19;19.30;99.90
7445;DHT22;3764;48.126;11.594;2023-08-01T13:00:46;19.30;99.90
7445;DHT22;3764;48.126;11.594;2023-08-01T13:03:13;19.40;99.90
7445;DHT22;3764;48.126;11.594;2023-08-01T13:05:41;19.40;99.90
7445;DHT22;3764;48.126;11.594;2023-08-01T13:08:09;19.40;99.90
7445;DHT22;3764;48.126;11.594;2023-08-01T13:10:37;19.40;99.90
7445;DHT22;3764;48.126;11.594;2023-08-01T13:13:06;19.40;99.90
7445;DHT22;3764;48.126;11.594;2023-08-01T13:15:33;19.40;99.90
7445;DHT22;3764;48.126;11.594;2023-08-01T13:18:01;19.40;99.90
7445;DHT22;3764;48.126;11.594;2023-08-01T13:20:28;19.40;99.90
7445;DHT22;3764;48.126;11.594;2023-08-01T13:22:55;19.40;99.90
7445;DHT22;3764;48.126;11.594;2023-08-01T13:25:22;19.30;99.90
7445;DHT22;3764;48.126;11.594;2023-08-01T13:27:49;19.30;99.90
7445;DHT22;3764;48.126;11.594;2023-08-01T13:30:18;19.30;99.90
7445;DHT22;3764;48.126;11.594;2023-08-01T13:32:45;19.40;99.90
7445;DHT22;3764;48.126;11.594;2023-08-01T13:35:13;19.40;99.90
7445;DHT22;3764;48.126;11.594;2023-08-01T13:37:40;19.40;99.90
7445;DHT22;3764;48.126;11.594;2023-08-01T13:40:08;19.40;99.90
7445;DHT22;3764;48.126;11.594;2023-08-01T13:42:37;19.40;99.90
7445;DHT22;3764;48.126;11.594;2023-08-01T13:45:05;19.50;99.90
7445;DHT22;3764;48.126;11.594;2023-08-01T13:47:34;19.50;99.90
7445;DHT22;3764;48.126;11.594;2023-08-01T13:50:01;19.60;99.90
7445;DHT22;3764;48.126;11.594;2023-08-01T13:52:28;19.70;99.90
7445;DHT22;3764;48.126;11.594;2023-08-01T13:54:55;19.80;99.90
7445;DHT22;3764;48.126;11.594;2023-08-01T13:57:22;19.80;99.90
7445;DHT22;3764;48.126;11.594;2023-08-01T13:59:50;19.80;99.90
7445;DHT22;3764;48.126;11.594;2023-08-01T14:02:17;19.90;99.90
7445;DHT22;3764;48.126;11.594;2023-08-01T14:04:46;20.00;99.90
7445;DHT22;3764;48.126;11.594;2023-08-01T14:07:15;20.00;99.90
7445;DHT22;3764;48.126;11.594;2023-08-01T14:09:42;20.00;99.90
7445;DHT22;3764;48.126;11.594;2023-08-01T14:12:09;20.10;99.90
7445;DHT22;3764;48.126;11.594;2023-08-01T14:14:36;20.10;99.90
7445;DHT22;3764;48.126;11.594;2023-08-01T14:17:04;20.10;99.90
7445;DHT22;3764;48.126;11.594;2023-08-01T14:19:31;20.20;99.90
7445;DHT22;3764;48.126;11.594;2023-08-01T14:21:59;20.20;99.90
7445;DHT22;3764;48.126;11.594;2023-08-01T14:24:26;20.20;99.90
7445;DHT22;3764;48.126;11.594;2023-08-01T14:26:53;20.20;99.90
7445;DHT22;3764;48.126;11.594;2023-08-01T14:29:20;20.20;99.90
7445;DHT22;3764;48.126;11.594;2023-08-01T14:31:48;20.20;99.90
7445;DHT22;3764;48.126;11.594;2023-08-01T14:34:16;20.20;99.90
7445;DHT22;3764;48.126;11.594;2023-08-01T14:36:43;20.20;99.90
7445;DHT22;3764;48.126;11.594;2023-08-01T14:39:12;20.20;99.90
7445;DHT22;3764;48.126;11.594;2023-08-01T14:41:39;20.10;99.90
7445;DHT22;3764;48.126;11.594;2023-08-01T14:44:06;20.10;99.90
7445;DHT22;3764;48.126;11.594;2023-08-01T14:46:33;20.00;99.90
7445;DHT22;3764;48.126;11.594;2023-08-01T14:49:02;19.90;99.90
7445;DHT22;3764;48.126;11.594;2023-08-01T14:51:29;19.90;99.90
7445;DHT22;3764;48.126;11.594;2023-08-01T14:53:56;19.90;99.90
7445;DHT22;3764;48.126;11.594;2023-08-01T14:56:24;19.80;99.90
7445;DHT22;3764;48.126;11.594;2023-08-01T14:58:52;19.80;99.90
7445;DHT22;3764;48.126;11.594;2023-08-01T15:01:19;19.80;99.90
7445;DHT22;3764;48.126;11.594;2023-08-01T15:03:46;19.80;99.90
7445;DHT22;3764;48.126;11.594;2023-08-01T15:06:13;19.80;99.90
7445;DHT22;3764;48.126;11.594;2023-08-01T15:08:41;19.80;99.90
7445;DHT22;3764;48.126;11.594;2023-08-01T15:11:08;19.80;99.90
7445;DHT22;3764;48.126;11.594;2023-08-01T15:13:37;19.80;99.90
7445;DHT22;3764;48.126;11.594;2023-08-01T15:16:08;19.70;99.90
7445;DHT22;3764;48.126;11.594;2023-08-01T15:18:35;19.70;99.90
7445;DHT22;3764;48.126;11.594;2023-08-01T15:21:02;19.80;99.90
7445;DHT22;3764;48.126;11.594;2023-08-01T15:23:29;19.70;99.90
7445;DHT22;3764;48.126;11.594;2023-08-01T15:25:58;19.60;99.90
7445;DHT22;3764;48.126;11.594;2023-08-01T15:28:26;19.50;99.90
7445;DHT22;3764;48.126;11.594;2023-08-01T15:31:03;19.50;99.90
7445;DHT22;3764;48.126;11.594;2023-08-01T15:33:32;19.30;99.90
7445;DHT22;3764;48.126;11.594;2023-08-01T15:36:00;19.30;99.90
7445;DHT22;3764;48.126;11.594;2023-08-01T15:38:27;19.10;99.90
7445;DHT22;3764;48.126;11.594;2023-08-01T15:40:55;18.90;99.90
7445;DHT22;3764;48.126;11.594;2023-08-01T15:43:23;18.80;99.90
7445;DHT22;3764;48.126;11.594;2023-08-01T15:45:51;18.70;99.90
7445;DHT22;3764;48.126;11.594;2023-08-01T15:48:19;18.70;99.90